Time;durP1;ratioP1;P1;durP2;ratioP2;P2;SDS_P1;SDS_P2;PMS_P1;PMS_P2;Temp;Humidity;BMP_temperature;BMP_pressure;BME280_temperature;BME280_humidity;BME280_pressure;Samples;Min_cycle;Max_cycle;Signal;HPM_P1;HPM_P2
2022/12/01 00:02:10;;;;;;;101.63;40.70;;;10.60;81.90;;;;;;5073912;28;20036;-88
2022/12/01 00:04:36;;;;;;;108.35;41.33;;;10.60;81.80;;;;;;5074714;28;20040;-89
2022/12/01 00:07:01;;;;;;;109.78;42.20;;;10.60;81.80;;;;;;5074993;28;20140;-89
2022/12/01 00:12:11;;;;;;;103.43;41.30;;;10.60;81.90;;;;;;5090831;28;20501;-88
2022/12/01 00:14:36;;;;;;;104.22;40.88;;;10.60;81.80;;;;;;5073621;28;20117;-89
2022/12/01 00:17:03;;;;;;;107.22;45.22;;;10.60;81.80;;;;;;5074061;28;20397;-89
2022/12/01 00:19:29;;;;;;;110.78;43.35;;;10.60;81.80;;;;;;5074983;28;20086;-89
2022/12/01 00:21:55;;;;;;;115.68;43.92;;;10.60;81.80;;;;;;5073903;28;20427;-88
2022/12/01 00:24:22;;;;;;;118.13;43.80;;;10.50;81.90;;;;;;5073711;28;20404;-88
2022/12/01 00:26:48;;;;;;;101.10;42.63;;;10.50;81.90;;;;;;5073399;28;20404;-88
2022/12/01 00:29:14;;;;;;;99.05;41.20;;;10.60;82.00;;;;;;5073814;28;20040;-88
2022/12/01 00:31:39;;;;;;;106.90;44.40;;;10.60;81.90;;;;;;5073441;28;20050;-88
2022/12/01 00:34:05;;;;;;;112.70;43.05;;;10.60;81.90;;;;;;5090462;28;20047;-88
2022/12/01 00:36:31;;;;;;;112.10;42.97;;;10.60;82.30;;;;;;5090578;28;20075;-87
2022/12/01 00:38:57;;;;;;;104.53;43.08;;;10.50;82.50;;;;;;5073506;28;20051;-88
2022/12/01 00:41:24;;;;;;;115.88;44.85;;;10.60;82.10;;;;;;5091358;28;20050;-89
2022/12/01 00:43:50;;;;;;;106.80;41.47;;;10.50;81.90;;;;;;5090430;28;20076;-88
2022/12/01 00:46:16;;;;;;;105.28;43.25;;;10.50;82.00;;;;;;5073132;28;20055;-88
2022/12/01 00:48:42;;;;;;;105.97;43.30;;;10.50;82.00;;;;;;5090554;28;20720;-88
2022/12/01 00:51:08;;;;;;;111.13;42.65;;;10.60;81.90;;;;;;5090330;28;20051;-88
2022/12/01 00:53:33;;;;;;;114.28;44.08;;;10.60;82.00;;;;;;5089815;28;20130;-87
2022/12/01 00:55:59;;;;;;;114.20;45.25;;;10.60;82.00;;;;;;5073714;28;20040;-89
2022/12/01 00:58:25;;;;;;;103.40;43.75;;;10.50;82.00;;;;;;5072921;28;20047;-89
2022/12/01 01:00:58;;;;;;;101.15;43.63;;;10.50;82.00;;;;;;5089855;28;20047;-88
2022/12/01 01:03:24;;;;;;;;;;;10.50;82.20;;;;;;5073247;28;20044;-88
2022/12/01 01:05:49;;;;;;;103.60;42.80;;;10.70;82.10;;;;;;5089743;28;19924;-87
2022/12/01 01:08:15;;;;;;;98.82;42.08;;;10.70;81.40;;;;;;5089410;28;20052;-87
2022/12/01 01:10:43;;;;;;;104.35;42.60;;;10.60;81.50;;;;;;5089459;28;20072;-87
2022/12/01 01:13:10;;;;;;;99.40;42.65;;;10.60;81.70;;;;;;5072915;28;20131;-88
2022/12/01 01:15:36;;;;;;;104.75;43.83;;;10.60;81.80;;;;;;5072234;28;20043;-88
2022/12/01 01:18:02;;;;;;;112.40;44.97;;;10.60;81.90;;;;;;5089672;28;20102;-88
2022/12/01 01:20:28;;;;;;;95.90;42.17;;;10.60;82.00;;;;;;5089205;28;20058;-88
2022/12/01 01:22:54;;;;;;;100.57;42.90;;;10.60;82.00;;;;;;5089624;28;20400;-88
2022/12/01 01:25:19;;;;;;;99.82;43.92;;;10.60;82.60;;;;;;5072308;28;20043;-88
2022/12/01 01:27:45;;;;;;;97.43;42.13;;;10.60;82.00;;;;;;5089049;28;20051;-89
2022/12/01 01:30:12;;;;;;;107.30;44.60;;;10.60;82.00;;;;;;5088911;28;20516;-87
2022/12/01 01:32:37;;;;;;;107.78;42.67;;;10.50;81.90;;;;;;5072087;28;20051;-87
2022/12/01 01:35:03;;;;;;;92.28;39.65;;;10.50;81.90;;;;;;5072901;28;20032;-87
2022/12/01 01:37:29;;;;;;;96.78;42.50;;;10.50;82.00;;;;;;5071972;28;20072;-88
2022/12/01 01:39:54;;;;;;;96.03;42.47;;;10.50;82.10;;;;;;5088915;28;20048;-87
2022/12/01 01:42:20;;;;;;;90.55;41.50;;;10.50;82.10;;;;;;5088552;28;20079;-88
2022/12/01 01:44:50;;;;;;;88.55;41.65;;;10.50;82.10;;;;;;5088766;28;20055;-89
2022/12/01 01:47:32;;;;;;;91.30;41.78;;;10.50;82.10;;;;;;5072371;28;20051;-88
2022/12/01 01:50:05;;;;;;;90.45;42.85;;;10.50;82.00;;;;;;5072104;28;20389;-88
2022/12/01 01:52:34;;;;;;;92.18;42.60;;;10.50;82.00;;;;;;5071924;28;20044;-88
2022/12/01 01:55:01;;;;;;;93.32;43.58;;;10.60;82.00;;;;;;5089426;28;20054;-88
2022/12/01 01:57:30;;;;;;;87.20;39.63;;;10.60;81.90;;;;;;5071727;28;20044;-88
2022/12/01 02:00:17;;;;;;;88.35;41.45;;;10.50;82.00;;;;;;5072431;28;20495;-88
2022/12/01 02:02:45;;;;;;;87.35;39.92;;;10.40;82.20;;;;;;5071406;28;20048;-88
2022/12/01 02:05:19;;;;;;;95.43;43.15;;;10.50;82.00;;;;;;5088524;28;20069;-88
2022/12/01 02:07:46;;;;;;;91.85;41.22;;;10.50;81.90;;;;;;5088881;28;20485;-88
2022/12/01 02:10:14;;;;;;;89.05;43.05;;;10.50;81.90;;;;;;5089689;28;20058;-88
2022/12/01 02:12:58;;;;;;;83.93;41.38;;;10.50;81.80;;;;;;5088178;28;20051;-88
2022/12/01 02:15:30;;;;;;;85.32;41.20;;;10.50;81.90;;;;;;5089549;28;20374;-88
2022/12/01 02:18:26;;;;;;;97.78;42.08;;;10.50;81.90;;;;;;5051735;28;20087;-88
2022/12/01 02:21:33;;;;;;;93.93;43.42;;;10.40;82.10;;;;;;5069025;28;20455;-89
2022/12/01 02:24:19;;;;;;;87.00;42.13;;;10.40;82.00;;;;;;5052478;28;20048;-88
2022/12/01 02:27:22;;;;;;;91.47;41.33;;;10.40;81.80;;;;;;5051440;28;20048;-88
2022/12/01 02:30:26;;;;;;;88.88;41.55;;;10.40;82.00;;;;;;5052024;28;20047;-89
2022/12/01 02:33:06;;;;;;;;;;;10.60;81.70;;;;;;4995662;28;20063;-88
2022/12/01 02:35:49;;;;;;;88.18;42.15;;;10.70;81.60;;;;;;4995072;28;19925;-90
2022/12/01 02:38:35;;;;;;;88.75;41.88;;;10.60;81.20;;;;;;5032334;28;20053;-89
2022/12/01 02:41:15;;;;;;;95.75;43.47;;;10.50;81.30;;;;;;5052451;28;20040;-89
2022/12/01 02:44:00;;;;;;;90.68;43.53;;;10.50;81.40;;;;;;5068496;28;20056;-89
2022/12/01 02:46:34;;;;;;;93.10;44.00;;;10.40;81.50;;;;;;5068701;28;20697;-88
2022/12/01 02:49:06;;;;;;;89.32;43.97;;;10.40;81.60;;;;;;5052207;28;20472;-88
2022/12/01 02:51:35;;;;;;;93.70;43.35;;;10.40;81.70;;;;;;5052172;28;20071;-89
2022/12/01 02:54:02;;;;;;;82.10;41.63;;;10.40;81.70;;;;;;5069693;28;20129;-89
2022/12/01 02:56:28;;;;;;;88.20;42.35;;;10.40;81.70;;;;;;5068326;28;20045;-88
2022/12/01 02:58:54;;;;;;;91.00;42.88;;;10.40;81.80;;;;;;5068668;28;20049;-90
2022/12/01 03:01:51;;;;;;;92.00;43.40;;;10.40;81.80;;;;;;5051728;28;20129;-89
2022/12/01 03:04:42;;;;;;;88.10;42.28;;;10.30;81.90;;;;;;5051743;28;20181;-87
2022/12/01 03:07:25;;;;;;;84.95;42.22;;;10.30;81.80;;;;;;5051499;28;20451;-88
2022/12/01 03:10:19;;;;;;;88.50;45.00;;;10.40;81.60;;;;;;5051979;28;20469;-89
2022/12/01 03:12:58;;;;;;;87.00;42.70;;;10.30;82.00;;;;;;5051043;28;20048;-88
2022/12/01 03:15:49;;;;;;;83.18;41.15;;;10.40;81.40;;;;;;5051547;28;20466;-88
2022/12/01 03:18:30;;;;;;;90.68;42.63;;;10.40;81.50;;;;;;5051531;28;20049;-89
2022/12/01 03:21:05;;;;;;;88.75;42.47;;;10.40;81.40;;;;;;5068607;28;20048;-87
2022/12/01 03:23:35;;;;;;;92.35;44.30;;;10.40;81.40;;;;;;5053611;28;20051;-89
2022/12/01 03:26:05;;;;;;;87.32;43.08;;;10.40;81.40;;;;;;5071768;28;20591;-88
2022/12/01 03:28:36;;;;;;;90.75;45.25;;;10.40;81.40;;;;;;5072294;28;20761;-89
2022/12/01 03:31:07;;;;;;;86.38;43.92;;;10.40;81.40;;;;;;5071855;28;20045;-88
2022/12/01 03:33:39;;;;;;;87.80;42.80;;;10.40;81.40;;;;;;5055391;28;20085;-88
2022/12/01 03:36:15;;;;;;;87.47;43.27;;;10.40;81.40;;;;;;5071990;28;20406;-88
2022/12/01 03:38:45;;;;;;;88.88;42.92;;;10.40;82.00;;;;;;5071498;28;20052;-88
2022/12/01 03:41:21;;;;;;;95.95;43.50;;;10.40;81.30;;;;;;5071441;28;20051;-89
2022/12/01 03:44:02;;;;;;;93.47;43.38;;;10.40;81.40;;;;;;5071078;28;20051;-88
2022/12/01 03:46:39;;;;;;;83.35;42.28;;;10.40;81.30;;;;;;5070868;28;20093;-87
2022/12/01 03:49:07;;;;;;;87.53;42.83;;;10.40;81.20;;;;;;5054058;28;20044;-88
2022/12/01 03:51:39;;;;;;;91.43;43.58;;;10.50;81.10;;;;;;5054047;28;20131;-88
2022/12/01 03:54:18;;;;;;;83.72;41.83;;;10.40;81.10;;;;;;5054284;28;20563;-87
2022/12/01 03:56:49;;;;;;;88.55;42.40;;;10.40;81.20;;;;;;5053783;28;20041;-87
2022/12/01 03:59:16;;;;;;;91.68;45.08;;;10.40;81.20;;;;;;5054377;28;20082;-88
2022/12/01 04:01:42;;;;;;;89.75;42.75;;;10.40;81.20;;;;;;5071043;28;20071;-87
2022/12/01 04:04:13;;;;;;;90.65;42.95;;;10.40;81.40;;;;;;5070675;28;20052;-87
2022/12/01 04:06:41;;;;;;;86.28;42.67;;;10.40;81.30;;;;;;5070393;28;20052;-87
2022/12/01 04:09:07;;;;;;;90.00;43.83;;;10.40;81.20;;;;;;5070489;28;20080;-88
2022/12/01 04:14:17;;;;;;;95.47;44.35;;;10.50;81.20;;;;;;5070915;28;20048;-88
2022/12/01 04:16:42;;;;;;;87.28;42.83;;;10.50;81.10;;;;;;5064642;28;20059;-88
2022/12/01 04:19:08;;;;;;;96.25;45.22;;;10.50;81.10;;;;;;5090018;28;20094;-87
2022/12/01 04:21:34;;;;;;;89.68;42.75;;;10.50;81.10;;;;;;5090581;28;20052;-88
2022/12/01 04:23:59;;;;;;;85.10;42.20;;;10.50;81.10;;;;;;5073512;28;20040;-88
2022/12/01 04:26:26;;;;;;;92.22;43.88;;;10.50;81.20;;;;;;5090161;28;20044;-87
2022/12/01 04:28:52;;;;;;;98.05;44.50;;;10.50;81.10;;;;;;5090455;28;20382;-88
2022/12/01 04:31:17;;;;;;;92.07;44.15;;;10.50;81.10;;;;;;5073199;28;20113;-88
2022/12/01 04:33:43;;;;;;;90.30;42.90;;;10.40;81.10;;;;;;5090062;28;20071;-88
2022/12/01 04:36:09;;;;;;;95.75;44.40;;;10.40;81.20;;;;;;5090619;28;20127;-88
2022/12/01 04:38:37;;;;;;;90.75;44.20;;;10.40;81.30;;;;;;5090611;28;20054;-88
2022/12/01 04:41:13;;;;;;;93.93;45.17;;;10.30;81.50;;;;;;5073913;28;20050;-88
2022/12/01 04:43:39;;;;;;;90.97;45.30;;;10.20;81.60;;;;;;5089914;28;20086;-89
2022/12/01 04:46:05;;;;;;;99.55;45.53;;;10.30;81.50;;;;;;5091221;28;20079;-88
2022/12/01 04:48:32;;;;;;;99.65;44.10;;;10.30;81.50;;;;;;5089433;28;20493;-88
2022/12/01 04:50:58;;;;;;;101.88;45.17;;;10.30;81.50;;;;;;5089958;28;20043;-87
2022/12/01 04:53:23;;;;;;;101.05;47.00;;;10.30;81.40;;;;;;5072834;28;20549;-88
2022/12/01 04:55:49;;;;;;;95.47;45.50;;;10.30;81.40;;;;;;5072849;28;20052;-88
2022/12/01 04:58:16;;;;;;;98.32;43.97;;;10.30;81.50;;;;;;5089583;28;20063;-88
2022/12/01 05:00:41;;;;;;;95.13;44.65;;;10.20;81.50;;;;;;5072658;28;20040;-87
2022/12/01 05:03:07;;;;;;;98.97;44.60;;;10.30;81.60;;;;;;5089997;28;20044;-89
2022/12/01 05:05:32;;;;;;;97.03;46.00;;;10.30;81.50;;;;;;5089496;28;20573;-88
2022/12/01 05:07:58;;;;;;;98.53;43.72;;;10.30;81.40;;;;;;5072779;28;20052;-88
2022/12/01 05:10:24;;;;;;;101.55;44.65;;;10.30;81.40;;;;;;5072121;28;20397;-88
2022/12/01 05:12:50;;;;;;;95.60;45.15;;;10.30;81.50;;;;;;5072858;28;20385;-88
2022/12/01 05:15:16;;;;;;;100.22;44.58;;;10.30;81.40;;;;;;5072811;28;20036;-88
2022/12/01 05:17:42;;;;;;;100.13;45.83;;;10.30;81.50;;;;;;5089280;28;20059;-89
2022/12/01 05:23:00;;;;;;;98.03;44.40;;;10.20;81.50;;;;;;5090250;28;20052;-88
2022/12/01 05:25:26;;;;;;;104.13;46.47;;;10.30;81.50;;;;;;5089459;28;20501;-88
2022/12/01 05:27:51;;;;;;;96.85;45.92;;;10.30;81.50;;;;;;5089818;28;20040;-87
2022/12/01 05:30:17;;;;;;;98.18;45.30;;;10.30;81.50;;;;;;5089664;28;20044;-88
2022/12/01 05:32:42;;;;;;;99.72;44.83;;;10.30;81.50;;;;;;5073130;28;20052;-88
2022/12/01 05:35:08;;;;;;;107.25;45.50;;;10.30;81.50;;;;;;5089432;28;20051;-87
2022/12/01 05:37:34;;;;;;;103.90;46.45;;;10.30;81.50;;;;;;5072940;28;20480;-89
2022/12/01 05:40:00;;;;;;;96.13;43.92;;;10.30;81.50;;;;;;5089795;28;20044;-87
2022/12/01 05:42:26;;;;;;;95.68;44.30;;;10.30;81.60;;;;;;5072227;28;20495;-89
2022/12/01 05:44:52;;;;;;;98.72;43.55;;;10.30;81.60;;;;;;5088824;28;20125;-88
2022/12/01 05:47:17;;;;;;;105.07;46.00;;;10.40;81.60;;;;;;5088279;28;20036;-88
2022/12/01 05:49:43;;;;;;;100.88;45.28;;;10.40;81.50;;;;;;5089077;28;20032;-88
2022/12/01 05:52:08;;;;;;;94.97;44.40;;;10.40;81.50;;;;;;5071917;28;20464;-88
2022/12/01 05:54:34;;;;;;;106.03;46.45;;;10.40;81.50;;;;;;5071804;28;20047;-88
2022/12/01 05:57:00;;;;;;;97.55;43.70;;;10.40;81.40;;;;;;5089261;28;20059;-89
2022/12/01 05:59:26;;;;;;;104.25;47.47;;;10.40;81.40;;;;;;5071954;28;20119;-87
2022/12/01 06:01:52;;;;;;;98.20;45.65;;;10.40;81.40;;;;;;5088747;28;20170;-88
2022/12/01 06:04:17;;;;;;;97.95;44.28;;;10.40;81.40;;;;;;5071695;28;20130;-87
2022/12/01 06:06:43;;;;;;;106.10;45.75;;;10.40;81.40;;;;;;5071752;28;20052;-88
2022/12/01 06:09:09;;;;;;;101.20;45.15;;;10.40;81.40;;;;;;5088562;28;20047;-88
2022/12/01 06:11:35;;;;;;;101.47;45.63;;;10.40;81.40;;;;;;5089035;28;20110;-88
2022/12/01 06:14:01;;;;;;;100.70;44.97;;;10.40;81.40;;;;;;5088735;28;20078;-88
2022/12/01 06:16:27;;;;;;;98.05;42.83;;;10.40;81.50;;;;;;5071299;28;20055;-87
2022/12/01 06:18:52;;;;;;;99.32;44.25;;;10.40;81.50;;;;;;5088843;28;20059;-88
2022/12/01 06:21:18;;;;;;;94.05;43.58;;;10.40;81.50;;;;;;5088744;28;20214;-88
2022/12/01 06:23:44;;;;;;;105.22;45.75;;;10.50;81.50;;;;;;5088453;28;20105;-87
2022/12/01 06:26:09;;;;;;;104.82;45.75;;;10.50;81.40;;;;;;5071400;28;20102;-88
2022/12/01 06:28:35;;;;;;;98.47;45.60;;;10.50;81.40;;;;;;5071418;28;20424;-86
2022/12/01 06:31:00;;;;;;;101.15;46.13;;;10.50;81.40;;;;;;5088245;28;20040;-88
2022/12/01 06:33:26;;;;;;;103.72;44.80;;;10.50;81.40;;;;;;5088252;28;20043;-89
2022/12/01 06:35:59;;;;;;;102.18;44.42;;;10.50;81.40;;;;;;5087766;28;20405;-88
2022/12/01 06:38:24;;;;;;;109.13;45.95;;;10.40;81.40;;;;;;5071266;28;20040;-87
2022/12/01 06:40:50;;;;;;;101.38;45.97;;;10.50;81.40;;;;;;5087674;28;20051;-88
2022/12/01 06:43:15;;;;;;;107.13;45.45;;;10.50;81.40;;;;;;5087745;28;20040;-89
2022/12/01 06:45:41;;;;;;;104.70;45.88;;;10.50;81.40;;;;;;5087567;28;20052;-89
2022/12/01 06:48:08;;;;;;;103.15;45.70;;;10.50;81.40;;;;;;5087418;28;20052;-88
2022/12/01 06:50:33;;;;;;;106.35;46.25;;;10.40;81.40;;;;;;5081167;28;20048;-88
2022/12/01 06:52:59;;;;;;;110.90;47.60;;;10.50;81.50;;;;;;5085327;28;20047;-88
2022/12/01 06:55:24;;;;;;;105.05;46.50;;;10.50;81.60;;;;;;5070957;28;20075;-88
2022/12/01 06:57:50;;;;;;;103.22;45.05;;;10.50;81.60;;;;;;5089075;28;20052;-89
2022/12/01 07:00:16;;;;;;;100.05;45.92;;;10.50;81.60;;;;;;5091908;28;20056;-88
2022/12/01 07:02:42;;;;;;;100.03;44.92;;;10.50;81.60;;;;;;5092263;28;20156;-90
2022/12/01 07:05:07;;;;;;;107.00;46.15;;;10.50;81.50;;;;;;5091840;28;20156;-89
2022/12/01 07:07:38;;;;;;;102.30;44.40;;;10.50;81.50;;;;;;5091955;28;20046;-89
2022/12/01 07:10:04;;;;;;;107.63;45.50;;;10.40;81.50;;;;;;5074625;28;20127;-88
2022/12/01 07:12:30;;;;;;;101.47;46.05;;;10.50;81.50;;;;;;5091642;28;20051;-88
2022/12/01 07:14:57;;;;;;;97.93;44.75;;;10.50;81.50;;;;;;5074927;28;20043;-89
2022/12/01 07:17:23;;;;;;;107.45;45.92;;;10.50;82.10;;;;;;5074877;28;20055;-88
2022/12/01 07:19:48;;;;;;;112.82;46.38;;;10.50;81.40;;;;;;5074551;28;20079;-88
2022/12/01 07:22:14;;;;;;;101.68;43.97;;;10.60;81.50;;;;;;5074572;28;20150;-89
2022/12/01 07:24:40;;;;;;;110.07;47.78;;;10.60;81.40;;;;;;5074646;28;20097;-88
2022/12/01 07:27:06;;;;;;;105.68;45.90;;;10.60;81.50;;;;;;5074558;28;20044;-88
2022/12/01 07:29:31;;;;;;;104.47;45.63;;;10.60;81.50;;;;;;5091323;28;20050;-89
2022/12/01 07:31:57;;;;;;;105.22;43.97;;;10.60;81.50;;;;;;5074466;28;20413;-88
2022/12/01 07:34:23;;;;;;;103.60;45.42;;;10.60;81.50;;;;;;5091438;28;20051;-88
2022/12/01 07:36:48;;;;;;;95.72;43.90;;;10.60;81.50;;;;;;5091311;28;20098;-88
2022/12/01 07:39:14;;;;;;;98.18;42.72;;;10.60;81.50;;;;;;5091116;28;20040;-87
2022/12/01 07:41:39;;;;;;;105.20;45.22;;;10.60;81.50;;;;;;5090950;28;20459;-87
2022/12/01 07:44:05;;;;;;;99.00;43.88;;;10.70;81.60;;;;;;5090770;28;20052;-87
2022/12/01 07:46:31;;;;;;;103.45;44.38;;;10.60;81.60;;;;;;5074201;28;20046;-88
2022/12/01 07:48:58;;;;;;;94.40;43.50;;;10.60;81.60;;;;;;5090546;28;20408;-87
2022/12/01 07:51:24;;;;;;;94.53;42.45;;;10.60;81.70;;;;;;5073547;28;20040;-88
2022/12/01 07:53:51;;;;;;;91.38;41.08;;;10.50;81.60;;;;;;5074421;28;20090;-88
2022/12/01 07:56:19;;;;;;;103.32;43.35;;;10.50;81.60;;;;;;5074202;28;20749;-88
2022/12/01 07:58:45;;;;;;;103.65;43.78;;;10.50;81.60;;;;;;5073839;28;20127;-89
2022/12/01 08:01:16;;;;;;;98.32;43.05;;;10.60;81.60;;;;;;5090744;28;20483;-87
2022/12/01 08:03:42;;;;;;;101.13;45.38;;;10.50;81.60;;;;;;5073612;28;20131;-89
2022/12/01 08:06:08;;;;;;;104.20;45.30;;;10.60;81.50;;;;;;5073299;28;20130;-88
2022/12/01 08:08:36;;;;;;;106.10;43.83;;;10.60;81.50;;;;;;5089970;28;20079;-88
2022/12/01 08:11:09;;;;;;;99.47;44.45;;;10.60;81.50;;;;;;5073252;28;20079;-88
2022/12/01 08:13:34;;;;;;;108.88;46.50;;;10.60;81.50;;;;;;5068681;28;20119;-88
2022/12/01 08:16:03;;;;;;;104.93;43.92;;;10.60;81.40;;;;;;5077611;28;20139;-89
2022/12/01 08:18:29;;;;;;;99.95;42.00;;;10.70;81.50;;;;;;5065695;28;20048;-88
2022/12/01 08:20:58;;;;;;;96.65;43.58;;;10.60;81.40;;;;;;5073547;28;20517;-88
2022/12/01 08:23:23;;;;;;;100.82;44.17;;;10.60;81.40;;;;;;5090812;28;20047;-88
2022/12/01 08:25:51;;;;;;;107.75;45.45;;;10.60;81.40;;;;;;5073185;28;20048;-88
2022/12/01 08:28:17;;;;;;;96.47;44.20;;;10.60;81.50;;;;;;5090526;28;20510;-89
2022/12/01 08:30:42;;;;;;;98.57;43.67;;;10.60;81.60;;;;;;5090355;28;20054;-89
2022/12/01 08:33:08;;;;;;;105.55;46.30;;;10.60;81.70;;;;;;5073825;28;20043;-89
2022/12/01 08:35:37;;;;;;;98.25;43.53;;;10.60;81.60;;;;;;5090327;28;20499;-88
2022/12/01 08:38:03;;;;;;;105.68;45.78;;;10.60;81.60;;;;;;5073099;28;20044;-89
2022/12/01 08:40:28;;;;;;;95.43;43.38;;;10.70;81.60;;;;;;5073759;28;20082;-89
2022/12/01 08:42:54;;;;;;;98.15;45.85;;;10.70;81.50;;;;;;5090177;28;20680;-89
2022/12/01 08:45:21;;;;;;;136.05;68.03;;;10.70;81.50;;;;;;5090604;28;20040;-87
2022/12/01 08:47:48;;;;;;;123.13;64.15;;;10.70;81.40;;;;;;5072911;28;20089;-87
2022/12/01 08:50:13;;;;;;;103.93;45.42;;;10.70;81.40;;;;;;5073140;28;20036;-87
2022/12/01 08:52:39;;;;;;;96.57;42.83;;;10.80;81.50;;;;;;5073376;28;20040;-87
2022/12/01 08:55:06;;;;;;;91.28;41.67;;;10.80;81.50;;;;;;5089701;28;20075;-87
2022/12/01 08:57:31;;;;;;;91.43;41.55;;;10.80;81.40;;;;;;5072902;28;20082;-87
2022/12/01 08:59:57;;;;;;;95.32;42.33;;;10.80;81.40;;;;;;5072949;28;20036;-86
2022/12/01 09:02:23;;;;;;;95.97;41.13;;;10.80;81.40;;;;;;5068141;28;20045;-87
2022/12/01 09:04:49;;;;;;;91.25;41.53;;;10.80;81.40;;;;;;5084581;28;20048;-86
2022/12/01 09:07:16;;;;;;;82.05;39.22;;;10.80;81.40;;;;;;5058969;28;20053;-87
2022/12/01 09:09:43;;;;;;;87.85;39.17;;;10.80;81.40;;;;;;5083554;28;20040;-87
2022/12/01 09:12:09;;;;;;;90.15;42.92;;;10.80;81.40;;;;;;5071717;28;20032;-86
2022/12/01 09:14:46;;;;;;;100.55;43.58;;;10.90;81.30;;;;;;5072851;28;20052;-86
2022/12/01 09:17:13;;;;;;;100.45;41.67;;;10.80;81.30;;;;;;5072581;28;20146;-87
2022/12/01 09:19:38;;;;;;;88.88;41.03;;;10.90;81.20;;;;;;5089090;28;20048;-87
2022/12/01 09:22:04;;;;;;;81.82;39.88;;;10.90;81.30;;;;;;5072828;28;20093;-87
2022/12/01 09:24:30;;;;;;;92.88;41.55;;;10.90;81.30;;;;;;5089812;28;20054;-86
2022/12/01 09:26:57;;;;;;;82.50;38.22;;;10.90;81.20;;;;;;5072996;28;20043;-92
2022/12/01 09:29:23;;;;;;;90.25;40.88;;;11.00;81.20;;;;;;5073942;28;20036;-87
2022/12/01 09:31:49;;;;;;;87.90;40.13;;;10.90;81.20;;;;;;5089707;28;20485;-87
2022/12/01 09:34:17;;;;;;;94.57;39.65;;;10.90;81.20;;;;;;5088777;28;20040;-87
2022/12/01 09:36:43;;;;;;;84.88;39.05;;;10.90;81.20;;;;;;5089150;28;20118;-86
2022/12/01 09:39:13;;;;;;;84.72;38.28;;;10.90;81.20;;;;;;5089228;28;20090;-86
2022/12/01 09:41:41;;;;;;;85.30;39.38;;;10.90;81.20;;;;;;5088799;28;20051;-87
2022/12/01 09:44:14;;;;;;;88.03;40.33;;;10.90;81.20;;;;;;5088817;28;20131;-88
2022/12/01 09:46:51;;;;;;;92.67;40.30;;;10.90;81.10;;;;;;5088837;28;20105;-86
2022/12/01 09:49:43;;;;;;;82.97;38.63;;;10.80;81.10;;;;;;5088851;28;20552;-86
2022/12/01 09:52:14;;;;;;;86.40;40.05;;;10.80;81.20;;;;;;5072359;28;20048;-87
2022/12/01 09:54:40;;;;;;;86.35;38.67;;;10.90;80.90;;;;;;5072460;28;20044;-87
2022/12/01 09:57:21;;;;;;;81.75;38.55;;;10.90;80.90;;;;;;5071967;28;20051;-87
2022/12/01 09:59:46;;;;;;;90.10;40.47;;;10.90;81.10;;;;;;5089172;28;20080;-87
2022/12/01 10:02:33;;;;;;;87.95;39.65;;;11.00;80.90;;;;;;5071950;28;20086;-88
2022/12/01 10:05:02;;;;;;;87.85;39.17;;;10.90;81.00;;;;;;5088602;28;20114;-89
2022/12/01 10:07:30;;;;;;;81.15;37.88;;;11.00;80.90;;;;;;5088701;28;20067;-89
2022/12/01 10:09:58;;;;;;;76.53;37.88;;;11.00;80.80;;;;;;5071839;28;20485;-90
2022/12/01 10:12:28;;;;;;;84.90;38.42;;;11.00;80.90;;;;;;5071693;28;20052;-88
2022/12/01 10:15:12;;;;;;;80.65;38.15;;;11.00;80.90;;;;;;5072086;28;20111;-89
2022/12/01 10:17:57;;;;;;;84.38;37.08;;;10.90;81.20;;;;;;5071319;28;20091;-89
2022/12/01 10:20:35;;;;;;;76.50;37.92;;;10.90;81.20;;;;;;5071393;28;20052;-89
2022/12/01 10:23:22;;;;;;;78.63;37.05;;;10.90;81.00;;;;;;5090359;28;20105;-90
2022/12/01 10:25:59;;;;;;;73.40;35.70;;;10.90;81.10;;;;;;5089139;28;20048;-89
2022/12/01 10:28:45;;;;;;;77.03;39.20;;;10.90;80.90;;;;;;5089212;28;20039;-90
2022/12/01 10:31:33;;;;;;;75.25;37.08;;;10.80;81.10;;;;;;5072966;28;20045;-90
2022/12/01 10:34:09;;;;;;;83.55;37.47;;;10.90;81.50;;;;;;5078536;28;20040;-89
2022/12/01 10:36:35;;;;;;;72.75;36.78;;;10.90;80.80;;;;;;5079170;28;20397;-89
2022/12/01 10:39:03;;;;;;;79.72;37.55;;;11.00;80.90;;;;;;5079275;28;20044;-90
2022/12/01 10:41:32;;;;;;;74.80;38.40;;;10.90;81.00;;;;;;5095627;28;20044;-90
2022/12/01 10:43:59;;;;;;;78.47;36.47;;;11.00;81.00;;;;;;5078704;28;20097;-89
2022/12/01 10:46:38;;;;;;;79.32;38.88;;;11.00;80.90;;;;;;5095816;28;20055;-89
2022/12/01 10:49:10;;;;;;;74.75;37.45;;;11.00;80.80;;;;;;5079361;28;20127;-89
2022/12/01 10:51:51;;;;;;;78.55;37.33;;;11.00;80.80;;;;;;5078847;28;20062;-90
2022/12/01 10:54:17;;;;;;;76.50;37.30;;;11.00;80.90;;;;;;5096232;28;20044;-90
2022/12/01 10:56:47;;;;;;;77.22;37.78;;;11.10;80.60;;;;;;5079495;28;20456;-90
2022/12/01 10:59:27;;;;;;;73.82;36.85;;;11.00;80.60;;;;;;5079379;28;20047;-90
2022/12/01 11:01:53;;;;;;;72.88;38.15;;;11.00;80.80;;;;;;5079058;28;20054;-89
2022/12/01 11:04:44;;;;;;;69.43;35.70;;;11.10;80.60;;;;;;5096255;28;20744;-90
2022/12/01 11:07:21;;;;;;;78.88;35.95;;;11.00;80.90;;;;;;5069670;28;20044;-90
2022/12/01 11:10:00;;;;;;;79.70;39.05;;;11.00;80.50;;;;;;5079307;28;20036;-88
2022/12/01 11:12:25;;;;;;;73.15;35.83;;;11.00;80.50;;;;;;5079229;28;20040;-89
2022/12/01 11:14:54;;;;;;;84.03;39.35;;;11.10;80.40;;;;;;5078791;28;20089;-90
2022/12/01 11:17:28;;;;;;;74.25;35.22;;;11.10;81.00;;;;;;5095370;28;20052;-89
2022/12/01 11:19:54;;;;;;;69.80;35.78;;;11.10;80.40;;;;;;5079235;28;20044;-90
2022/12/01 11:22:29;;;;;;;68.93;34.72;;;11.20;80.30;;;;;;5078646;28;20043;-89
2022/12/01 11:24:59;;;;;;;73.95;37.65;;;11.10;80.30;;;;;;5077216;28;20048;-89
2022/12/01 11:27:48;;;;;;;68.75;35.90;;;11.20;80.20;;;;;;5094876;28;20044;-88
2022/12/01 11:30:28;;;;;;;61.17;32.17;;;11.10;80.20;;;;;;5077651;28;20047;-87
2022/12/01 11:33:02;;;;;;;63.40;32.78;;;11.10;80.30;;;;;;5077331;28;20044;-87
2022/12/01 11:35:36;;;;;;;66.35;35.17;;;11.10;80.20;;;;;;5094419;28;20062;-87
2022/12/01 11:38:04;;;;;;;69.05;35.33;;;11.10;80.10;;;;;;5077813;28;20480;-87
2022/12/01 11:40:36;;;;;;;66.03;34.38;;;11.10;80.10;;;;;;5094165;28;20051;-86
2022/12/01 11:43:04;;;;;;;71.65;35.13;;;11.10;80.20;;;;;;5093987;28;20044;-85
2022/12/01 11:45:35;;;;;;;66.57;34.33;;;11.10;80.20;;;;;;5091010;28;20040;-86
2022/12/01 11:48:06;;;;;;;63.55;34.05;;;11.10;80.20;;;;;;5073955;28;20047;-86
2022/12/01 11:50:37;;;;;;;63.47;34.78;;;11.10;80.20;;;;;;5074437;28;20600;-86
2022/12/01 11:53:23;;;;;;;66.15;33.95;;;11.10;80.20;;;;;;5091286;28;20050;-86
2022/12/01 11:55:48;;;;;;;67.03;33.75;;;11.10;80.10;;;;;;5090815;28;20050;-87
2022/12/01 11:58:14;;;;;;;64.95;33.45;;;11.20;80.00;;;;;;5091305;28;20044;-86
2022/12/01 12:00:49;;;;;;;67.70;35.50;;;11.20;80.00;;;;;;5090930;28;20412;-87
2022/12/01 12:03:28;;;;;;;59.45;31.23;;;11.10;80.00;;;;;;5074409;28;20039;-87
2022/12/01 12:06:13;;;;;;;62.15;31.77;;;11.10;80.00;;;;;;5091113;28;20080;-87
2022/12/01 12:09:05;;;;;;;63.88;31.65;;;11.00;80.10;;;;;;5073972;28;20051;-87
2022/12/01 12:11:53;;;;;;;58.88;31.92;;;11.00;80.30;;;;;;5043114;28;20048;-87
2022/12/01 12:14:41;;;;;;;66.55;31.40;;;11.00;80.10;;;;;;5091121;28;20060;-86
2022/12/01 12:17:07;;;;;;;63.17;33.00;;;11.00;80.10;;;;;;5090823;28;20067;-87
2022/12/01 12:19:48;;;;;;;61.90;32.67;;;11.10;79.80;;;;;;5090548;28;20040;-87
2022/12/01 12:22:16;;;;;;;56.25;31.60;;;11.00;80.10;;;;;;5090608;28;20048;-87
2022/12/01 12:25:15;;;;;;;61.20;32.42;;;11.10;79.80;;;;;;5073448;28;20047;-87
2022/12/01 12:28:22;;;;;;;59.17;31.35;;;11.00;80.00;;;;;;5062611;28;20055;-86
2022/12/01 12:31:01;;;;;;;58.58;31.88;;;11.00;79.90;;;;;;5072593;28;20055;-86
2022/12/01 12:33:42;;;;;;;55.40;30.67;;;11.20;79.60;;;;;;5090223;28;20440;-87
2022/12/01 12:36:41;;;;;;;58.72;31.80;;;11.20;79.60;;;;;;5090247;28;20098;-87
2022/12/01 12:39:10;;;;;;;59.08;29.95;;;11.10;79.70;;;;;;5072784;28;20044;-86
2022/12/01 12:41:49;;;;;;;55.90;30.85;;;11.10;79.40;;;;;;5089946;28;20052;-85
2022/12/01 12:44:27;;;;;;;57.10;31.52;;;11.00;79.60;;;;;;5089608;28;20093;-86
2022/12/01 12:47:29;;;;;;;55.33;30.88;;;11.10;79.60;;;;;;5073433;28;20075;-86
2022/12/01 12:50:06;;;;;;;53.05;29.35;;;11.00;79.80;;;;;;5089907;28;20083;-86
2022/12/01 12:52:41;;;;;;;55.15;31.10;;;11.10;79.50;;;;;;5072417;28;20044;-86